Latest Weather Observations for Leonora Airport

IDW60801

Issued at 11:13 pm WST Monday 29 November 2021 (issued every 10 minutes, with the page automatically refreshed every 10 minutes)

About weather observations | Map of weather stations | Latest weather observations for WA | Other Formats
Station Details ID: 012241 Name: LEONORA AERO Lat: -28.88 Lon: 121.32 Height: 370.0 m
Data from the previous 72 hours. | See also: Recent months at Leonora Airport
Date/Time
WST
Temp
°C
App
Temp
°C
Dew
Point
°C
Rel
Hum
%
Delta-T
°C
Wind Press
QNH
hPa
Press
MSL
hPa
Rain since
9am
mm
Dir  Spd
km/h
Gust
km/h
Spd
kts
Gust
kts
29/11:00pm 28.9 25.8 -2.3 13 14.5 SE 4 9 2 5 1009.0 1007.0 0.0
29/10:30pm 30.3 26.6 -4.7 10 15.7 SSE 6 7 3 4 1009.1 1007.1 0.0
29/10:00pm 32.3 27.6 -4.6 9 16.9 SSW 11 17 6 9 1008.9 1006.9 0.0
29/09:30pm 31.1 27.3 -5.5 9 16.3 SE 6 19 3 10 1008.7 1006.7 0.0
29/09:00pm 30.6 27.5 -5.8 9 16.1 W 2 9 1 5 1008.5 1006.5 0.0
29/08:30pm 30.2 27.5 -6.1 9 15.9 CALM 0 0 0 0 1008.0 1006.0 0.0
29/08:00pm 33.0 28.1 -7.3 7 17.7 N 11 11 6 6 1007.8 1005.8 0.0
29/07:30pm 33.8 28.9 -6.8 7 18.1 NNW 11 11 6 6 1007.6 1005.6 0.0
29/07:00pm 35.1 30.9 -7.8 6 19.1 NW 7 11 4 6 1007.5 1005.4 0.0
29/06:30pm 37.2 32.2 -8.7 5 20.4 W 11 15 6 8 1007.3 1005.2 0.0
29/06:00pm 37.6 32.2 -8.4 5 20.6 WNW 13 24 7 13 1007.2 1005.1 0.0
29/05:30pm 38.5 32.4 -7.8 5 21.1 WNW 17 35 9 19 1007.1 1005.0 0.0
29/05:00pm 38.7 33.0 -7.6 5 21.2 WNW 15 26 8 14 1007.1 1005.0 0.0
29/04:30pm 38.2 32.1 -8.0 5 20.9 WNW 17 35 9 19 1007.3 1005.2 0.0
29/04:00pm 38.3 32.9 -7.9 5 21.0 WSW 13 24 7 13 1007.5 1005.4 0.0
29/03:30pm 37.9 31.8 -8.2 5 20.7 WNW 17 28 9 15 1007.9 1005.9 0.0
29/03:00pm 38.7 34.5 -7.6 5 21.2 SW 7 13 4 7 1008.2 1006.2 0.0
29/02:30pm 38.8 33.1 -7.6 5 21.2 WNW 15 33 8 18 1008.6 1006.6 0.0
29/02:00pm 37.8 30.5 -5.9 6 20.4 WNW 24 35 13 19 1009.0 1007.0 0.0
29/01:30pm 37.3 31.0 -6.3 6 20.1 NNW 19 33 10 18 1009.3 1007.3 0.0
29/01:00pm 36.5 32.0 -6.8 6 19.7 SSW 9 17 5 9 1010.0 1008.0 0.0
29/12:30pm 36.4 30.8 -6.9 6 19.7 W 15 26 8 14 1010.5 1008.5 0.0
29/12:00pm 36.6 32.3 -4.7 7 19.5 N 9 19 5 10 1010.9 1008.9 0.0
29/11:30am 36.6 30.4 -4.7 7 19.4 NW 19 28 10 15 1011.4 1009.4 0.0
29/11:00am 35.5 29.6 -5.5 7 18.9 NNW 17 26 9 14 1012.0 1010.0 0.0
29/10:30am 34.6 29.0 -6.2 7 18.5 NW 15 24 8 13 1012.4 1010.5 0.0
29/10:00am 34.0 27.8 -4.9 8 17.9 NNW 19 30 10 16 1012.8 1010.8 0.0
29/09:30am 33.3 26.9 -5.4 8 17.6 NNW 20 26 11 14 1013.1 1011.1 0.0
29/09:00am 32.8 26.5 -4.2 9 17.1 NNW 20 26 11 14 1013.3 1011.3 0.0
29/08:30am 31.6 25.0 -3.7 10 16.3 N 22 28 12 15 1013.5 1011.5 0.0
29/08:00am 30.7 23.7 -3.1 11 15.7 NNW 24 33 13 18 1013.6 1011.6 0.0
29/07:30am 29.6 23.6 -1.7 13 14.7 N 20 28 11 15 1013.5 1011.5 0.0
29/07:00am 28.5 22.7 -1.6 14 14.1 N 19 28 10 15 1013.5 1011.5 0.0
29/06:30am 26.1 21.5 -0.8 17 12.5 N 13 17 7 9 1013.3 1011.3 0.0
29/06:00am 24.5 20.0 -0.6 19 11.6 N 13 19 7 10 1013.1 1011.1 0.0
29/05:30am 23.2 18.6 -1.0 20 11.0 NNE 13 17 7 9 1012.8 1010.8 0.0
29/05:00am 22.9 17.1 -1.2 20 10.9 NNE 19 24 10 13 1012.4 1010.5 0.0
29/04:30am 23.0 17.6 -1.1 20 10.9 NNE 17 22 9 12 1012.1 1010.1 0.0
29/04:00am 23.2 17.5 -1.0 20 11.0 NNE 19 24 10 13 1012.1 1010.1 0.0
29/03:30am 23.3 16.9 -1.6 19 11.2 NNE 22 28 12 15 1011.9 1009.9 0.0
29/03:00am 23.5 17.5 -1.4 19 11.2 NNE 20 28 11 15 1011.9 1009.9 0.0
29/02:30am 22.3 18.0 -1.7 20 10.7 NNE 11 13 6 7 1012.1 1010.1 0.0
29/02:00am 22.8 18.5 -1.3 20 10.8 NE 11 17 6 9 1012.1 1010.1 0.0
29/01:30am 24.0 19.2 -2.5 17 11.8 NE 13 17 7 9 1012.2 1010.2 0.0
29/01:00am 24.6 19.8 -2.9 16 12.2 NE 13 20 7 11 1012.4 1010.5 0.0
29/12:30am 25.0 20.6 -2.5 16 12.3 NE 11 17 6 9 1012.7 1010.7 0.0
29/12:00am 25.5 20.6 -3.0 15 12.7 NNE 13 17 7 9 1012.9 1010.9 0.0
 
Date/Time
WST
Temp
°C
App
Temp
°C
Dew
Point
°C
Rel
Hum
%
Delta-T
°C
Wind Press
QNH
hPa
Press
MSL
hPa
Rain since
9am
mm
Dir  Spd
km/h
Gust
km/h
Spd
kts
Gust
kts
28/11:30pm 25.5 21.0 -3.0 15 12.7 NE 11 19 6 10 1013.3 1011.3 0.0
28/11:00pm 25.3 21.2 -3.2 15 12.6 ENE 9 13 5 7 1013.6 1011.6 0.0
28/10:30pm 26.1 21.6 -3.5 14 13.1 ENE 11 13 6 7 1014.0 1012.0 0.0
28/10:00pm 27.0 22.3 -4.8 12 13.9 ENE 11 11 6 6 1014.1 1012.1 0.0
28/09:30pm 27.6 23.0 -4.3 12 14.1 ENE 11 15 6 8 1014.1 1012.1 0.0
28/09:00pm 28.3 23.2 -4.9 11 14.6 ENE 13 17 7 9 1014.0 1012.0 0.0
28/08:30pm 29.0 23.8 -5.7 10 15.2 E 13 15 7 8 1014.0 1012.0 0.0
28/08:00pm 29.6 25.3 -5.2 10 15.4 ENE 9 11 5 6 1013.8 1011.8 0.0
28/07:30pm 29.8 25.3 -6.4 9 15.7 ESE 9 11 5 6 1013.7 1011.7 0.0
28/07:00pm 30.6 26.4 -7.4 8 16.3 SE 7 9 4 5 1013.5 1011.5 0.0
28/06:30pm 32.3 28.1 -7.8 7 17.4 SSE 7 11 4 6 1013.3 1011.3 0.0
28/06:00pm 32.9 29.7 -7.4 7 17.7 SE 2 9 1 5 1013.0 1011.0 0.0
28/05:30pm 33.5 29.2 -9.0 6 18.2 SE 7 13 4 7 1012.7 1010.7 0.0
28/05:00pm 33.5 29.4 -9.0 6 18.2 SE 6 13 3 7 1012.6 1010.6 0.0
28/04:30pm 33.8 29.1 -8.7 6 18.4 E 9 20 5 11 1012.7 1010.7 0.0
28/04:00pm 33.7 30.0 -8.8 6 18.3 S 4 13 2 7 1013.0 1011.0 0.0
28/03:30pm 33.5 29.2 -9.0 6 18.2 E 7 13 4 7 1013.4 1011.4 0.0
28/03:00pm 33.9 29.4 -6.7 7 18.1 SSW 9 15 5 8 1013.7 1011.7 0.0
28/02:30pm 34.2 29.7 -6.5 7 18.3 SSE 9 20 5 11 1014.1 1012.1 0.0
28/02:00pm 32.7 27.7 -4.3 9 17.0 NE 13 20 7 11 1014.7 1012.8 0.0
28/01:30pm 32.1 27.4 -4.7 9 16.8 ENE 11 17 6 9 1015.1 1013.2 0.0
28/01:00pm 31.7 26.4 -3.6 10 16.3 ESE 15 24 8 13 1015.7 1013.7 0.0
28/12:30pm 31.5 27.1 -2.5 11 16.0 ESE 11 20 6 11 1016.2 1014.2 0.0
28/12:00pm 30.2 25.6 -1.2 13 14.9 E 13 20 7 11 1016.7 1014.7 0.0
28/11:30am 30.4 26.3 -0.1 14 14.8 ESE 11 19 6 10 1017.2 1015.3 0.0
28/11:00am 29.0 24.1 -0.2 15 14.0 ESE 15 24 8 13 1017.6 1015.7 0.0
28/10:30am 28.7 25.8 1.3 17 13.5 ESE 6 17 3 9 1018.0 1016.1 0.0
28/10:00am 26.8 23.4 2.0 20 12.2 E 9 20 5 11 1018.6 1016.6 0.0
28/09:30am 26.5 22.5 3.1 22 11.7 ESE 13 19 7 10 1018.9 1016.9 0.0
28/09:00am 25.5 22.8 3.5 24 11.0 NE 7 15 4 8 1019.0 1017.0 0.0
28/08:30am 25.0 21.5 3.6 25 10.7 NE 11 20 6 11 1019.4 1017.4 0.0
28/08:00am 23.9 20.1 3.8 27 10.0 NNE 13 20 7 11 1019.4 1017.4 0.0
28/07:30am 23.1 18.6 4.1 29 9.5 NE 17 20 9 11 1019.7 1017.8 0.0
28/07:00am 22.0 17.1 4.1 31 8.8 NE 19 28 10 15 1019.7 1017.8 0.0
28/06:30am 21.1 15.9 3.8 32 8.5 NE 20 30 11 16 1019.3 1017.3 0.0
28/06:00am 20.3 16.1 3.9 34 8.0 NE 15 24 8 13 1019.3 1017.3 0.0
28/05:30am 19.8 16.0 3.9 35 7.7 ENE 13 17 7 9 1019.0 1017.0 0.0
28/05:00am 19.3 15.4 3.5 35 7.6 ENE 13 19 7 10 1018.6 1016.6 0.0
28/04:30am 19.7 15.4 3.4 34 7.8 ENE 15 22 8 12 1018.1 1016.2 0.0
28/04:00am 20.0 15.7 3.3 33 8.0 ENE 15 20 8 11 1018.0 1016.1 0.0
28/03:30am 20.6 15.9 2.9 31 8.5 ENE 17 22 9 12 1017.9 1016.0 0.0
28/03:00am 20.8 16.4 2.6 30 8.7 E 15 20 8 11 1018.0 1016.1 0.0
28/02:30am 21.0 16.6 2.8 30 8.7 E 15 19 8 10 1018.0 1016.1 0.0
28/02:00am 21.4 17.4 3.1 30 8.8 E 13 17 7 9 1018.0 1016.1 0.0
28/01:30am 21.9 17.6 3.1 29 9.1 ENE 15 20 8 11 1017.9 1016.0 0.0
28/01:00am 22.3 17.6 2.9 28 9.4 E 17 20 9 11 1018.0 1016.1 0.0
28/12:30am 22.8 18.0 2.8 27 9.7 E 17 20 9 11 1018.3 1016.3 0.0
28/12:00am 23.2 18.3 2.1 25 10.1 E 17 22 9 12 1018.5 1016.5 0.0
 
Date/Time
WST
Temp
°C
App
Temp
°C
Dew
Point
°C
Rel
Hum
%
Delta-T
°C
Wind Press
QNH
hPa
Press
MSL
hPa
Rain since
9am
mm
Dir  Spd
km/h
Gust
km/h
Spd
kts
Gust
kts
27/11:30pm 23.8 18.5 2.0 24 10.5 E 19 24 10 13 1018.4 1016.4 0.0
27/11:00pm 24.1 19.2 1.7 23 10.7 ESE 17 22 9 12 1018.4 1016.4 0.0
27/10:30pm 24.7 20.1 1.6 22 11.1 E 15 19 8 10 1018.4 1016.4 0.0
27/10:00pm 25.0 20.3 1.2 21 11.4 E 15 17 8 9 1018.3 1016.3 0.0
27/09:30pm 25.4 21.0 0.1 19 11.9 E 13 15 7 8 1018.4 1016.4 0.0
27/09:00pm 26.1 21.6 0.0 18 12.3 E 13 17 7 9 1018.3 1016.3 0.0
27/08:30pm 26.6 22.1 -0.4 17 12.7 ESE 13 17 7 9 1018.1 1016.2 0.0
27/08:00pm 27.2 21.9 -0.8 16 13.1 ESE 17 22 9 12 1017.8 1015.9 0.0
27/07:30pm 27.9 22.5 -1.1 15 13.6 ESE 17 30 9 16 1017.4 1015.5 0.0
27/07:00pm 28.6 23.2 -1.5 14 14.1 ESE 17 24 9 13 1017.1 1015.2 0.0
27/06:30pm 29.2 23.3 -1.0 14 14.3 E 20 30 11 16 1016.8 1014.8 0.0
27/06:00pm 30.1 24.8 -0.3 14 14.7 ESE 17 24 9 13 1016.6 1014.6 0.0
27/05:30pm 30.6 25.1 -2.0 12 15.4 ESE 17 26 9 14 1016.4 1014.4 0.0
27/05:00pm 30.9 25.2 -0.7 13 15.3 SE 19 37 10 20 1016.2 1014.2 0.0
27/04:30pm 31.2 25.9 -0.5 13 15.4 ESE 17 35 9 19 1016.2 1014.2 0.0
27/04:00pm 30.9 26.1 0.3 14 15.0 ESE 15 26 8 14 1016.2 1014.2 0.0
27/03:30pm 31.0 25.8 0.4 14 15.1 SE 17 32 9 17 1016.2 1014.2 0.0
27/03:00pm 30.4 26.7 -0.1 14 14.8 ESE 9 17 5 9 1016.4 1014.4 0.0
27/02:30pm 31.3 26.2 0.6 14 15.2 ESE 17 32 9 17 1016.7 1014.7 0.0
27/02:00pm 29.8 25.5 1.3 16 14.1 E 13 24 7 13 1017.0 1015.0 0.0
27/01:30pm 30.4 26.0 2.6 17 14.2 E 15 32 8 17 1017.5 1015.6 0.0
27/01:00pm 29.3 24.4 1.7 17 13.7 E 17 24 9 13 1018.1 1016.2 0.0
27/12:30pm 29.1 24.3 2.4 18 13.4 E 17 26 9 14 1018.7 1016.7 0.0
27/12:00pm 28.6 23.2 2.7 19 13.0 ESE 20 28 11 15 1019.1 1017.1 0.0
27/11:30am 28.6 24.1 4.2 21 12.6 E 17 28 9 15 1019.5 1017.5 0.0
27/11:00am 27.0 22.1 4.1 23 11.7 ESE 19 35 10 19 1020.0 1018.1 0.0
27/10:30am 26.3 21.4 5.3 26 10.9 E 20 30 11 16 1020.5 1018.6 0.0
27/10:00am 25.9 21.3 6.5 29 10.3 E 20 28 11 15 1020.9 1019.0 0.0
27/09:30am 24.7 20.4 6.9 32 9.4 E 19 26 10 14 1021.4 1019.4 0.0
27/09:00am 24.3 19.9 7.4 34 9.0 ENE 20 30 11 16 1021.8 1019.8 0.0
27/08:30am 23.5 19.4 8.0 37 8.3 ENE 19 28 10 15 1022.1 1020.2 0.0
27/08:00am 22.8 19.0 8.9 41 7.5 ENE 19 28 10 15 1022.2 1020.3 0.0
27/07:30am 22.1 18.1 8.9 43 7.2 ENE 20 30 11 16 1022.2 1020.3 0.0
27/07:00am 21.0 16.6 8.9 46 6.5 ENE 22 28 12 15 1022.2 1020.3 0.0
27/06:30am 20.3 15.8 8.6 47 6.2 ENE 22 35 12 19 1021.9 1019.9 0.0
27/06:00am 19.8 15.7 8.5 48 6.0 ENE 20 33 11 18 1021.6 1019.6 0.0
27/05:30am 19.3 15.3 8.3 49 5.8 ENE 19 22 10 12 1021.4 1019.4 0.0
27/05:00am 19.1 15.0 7.8 48 5.9 ENE 19 24 10 13 1021.0 1019.1 0.0
27/04:30am 19.3 15.1 7.4 46 6.2 ENE 19 24 10 13 1020.6 1018.7 0.0
27/04:00am 19.7 14.5 7.1 44 6.5 ENE 24 30 13 16 1020.3 1018.4 0.0
27/03:30am 19.9 15.3 6.3 41 6.9 E 20 26 11 14 1020.0 1018.1 0.0
27/03:00am 20.2 15.5 5.1 37 7.5 E 19 24 10 13 1019.9 1018.0 0.0
27/02:30am 20.5 15.7 4.5 35 7.9 E 19 22 10 12 1019.8 1017.9 0.0
27/02:00am 21.1 15.6 4.2 33 8.3 E 22 32 12 17 1019.6 1017.7 0.0
27/01:30am 21.6 16.4 3.3 30 8.9 E 20 30 11 16 1019.5 1017.5 0.0
27/01:00am 22.1 16.4 2.8 28 9.3 E 22 30 12 16 1019.4 1017.4 0.0
27/12:30am 22.7 16.5 2.2 26 9.8 E 24 33 13 18 1019.3 1017.3 0.0
27/12:00am 23.2 17.4 2.1 25 10.1 E 22 30 12 16 1019.3 1017.3 0.0
 
Date/Time
WST
Temp
°C
App
Temp
°C
Dew
Point
°C
Rel
Hum
%
Delta-T
°C
Wind Press
QNH
hPa
Press
MSL
hPa
Rain since
9am
mm
Dir  Spd
km/h
Gust
km/h
Spd
kts
Gust
kts
26/11:30pm 23.7 18.5 2.5 25 10.3 E 19 26 10 14 1019.2 1017.2 0.0

Other formats

Comma delimited format used in spreadsheet applications
http://www.bom.gov.au/fwo/IDW60801/IDW60801.94450.axf

JavaScript Object Notation format (JSON) in row-major order
http://www.bom.gov.au/fwo/IDW60801/IDW60801.94450.json

Data quality

Most of these data are generated automatically and are frequently updated. Quality checks on data are not normally performed. It is possible for incorrect values to appear. Refer to information at About Latest Weather Observations and please check the disclaimer before using these data.